sensor_id;sensor_type;location;lat;lon;timestamp;pressure;altitude;pressure_sealevel;temperature;humidity
75008;BME280;63554;48.940;12.050;2023-02-03T00:00:56;98349.03;;;1.50;95.90
75008;BME280;63554;48.940;12.050;2023-02-03T00:04:59;98342.56;;;1.62;95.82
75008;BME280;63554;48.940;12.050;2023-02-03T00:09:03;98319.72;;;1.79;95.61
75008;BME280;63554;48.940;12.050;2023-02-03T00:13:06;98332.22;;;1.88;95.29
75008;BME280;63554;48.940;12.050;2023-02-03T00:17:09;98326.13;;;2.15;94.73
75008;BME280;63554;48.940;12.050;2023-02-03T00:21:12;98319.38;;;2.31;94.05
75008;BME280;63554;48.940;12.050;2023-02-03T00:25:17;98327.94;;;2.34;93.74
75008;BME280;63554;48.940;12.050;2023-02-03T00:29:21;98327.09;;;2.44;93.74
75008;BME280;63554;48.940;12.050;2023-02-03T00:33:26;98319.91;;;2.44;93.60
75008;BME280;63554;48.940;12.050;2023-02-03T00:37:29;98331.59;;;2.53;93.51
75008;BME280;63554;48.940;12.050;2023-02-03T00:41:33;98321.03;;;2.51;93.75
75008;BME280;63554;48.940;12.050;2023-02-03T00:45:35;98322.28;;;2.57;93.86
75008;BME280;63554;48.940;12.050;2023-02-03T00:49:38;98311.31;;;2.50;93.88
75008;BME280;63554;48.940;12.050;2023-02-03T00:53:41;98312.56;;;2.56;94.30
75008;BME280;63554;48.940;12.050;2023-02-03T00:57:44;98309.47;;;2.51;94.13
75008;BME280;63554;48.940;12.050;2023-02-03T01:01:47;98321.16;;;2.50;94.00
75008;BME280;63554;48.940;12.050;2023-02-03T01:05:51;98314.00;;;2.50;93.90
75008;BME280;63554;48.940;12.050;2023-02-03T01:09:54;98323.81;;;2.60;93.80
75008;BME280;63554;48.940;12.050;2023-02-03T01:13:58;98307.78;;;2.60;93.40
75008;BME280;63554;48.940;12.050;2023-02-03T01:18:02;98309.88;;;2.66;93.30
75008;BME280;63554;48.940;12.050;2023-02-03T01:22:05;98305.53;;;2.65;93.32
75008;BME280;63554;48.940;12.050;2023-02-03T01:26:10;98308.47;;;2.62;93.63
75008;BME280;63554;48.940;12.050;2023-02-03T01:30:15;98318.47;;;2.60;93.43
75008;BME280;63554;48.940;12.050;2023-02-03T01:34:18;98322.41;;;2.65;93.28
75008;BME280;63554;48.940;12.050;2023-02-03T01:38:21;98317.88;;;2.66;93.01
75008;BME280;63554;48.940;12.050;2023-02-03T01:42:23;98326.91;;;2.65;92.86
75008;BME280;63554;48.940;12.050;2023-02-03T01:46:30;98313.69;;;2.63;92.66
75008;BME280;63554;48.940;12.050;2023-02-03T01:50:36;98307.09;;;2.57;92.40
75008;BME280;63554;48.940;12.050;2023-02-03T01:54:42;98315.09;;;2.57;92.54
75008;BME280;63554;48.940;12.050;2023-02-03T01:58:47;98301.31;;;2.52;92.46
75008;BME280;63554;48.940;12.050;2023-02-03T02:02:52;98300.34;;;2.53;92.85
75008;BME280;63554;48.940;12.050;2023-02-03T02:06:56;98300.06;;;2.47;92.84
75008;BME280;63554;48.940;12.050;2023-02-03T02:11:00;98295.28;;;2.50;93.05
75008;BME280;63554;48.940;12.050;2023-02-03T02:15:03;98289.13;;;2.50;92.95
75008;BME280;63554;48.940;12.050;2023-02-03T02:19:21;98290.63;;;2.52;93.18
75008;BME280;63554;48.940;12.050;2023-02-03T02:23:58;98283.88;;;2.58;93.14
75008;BME280;63554;48.940;12.050;2023-02-03T02:28:30;98266.00;;;2.58;92.85
75008;BME280;63554;48.940;12.050;2023-02-03T02:32:47;98260.38;;;2.62;93.08
75008;BME280;63554;48.940;12.050;2023-02-03T02:37:03;98255.72;;;2.64;92.93
75008;BME280;63554;48.940;12.050;2023-02-03T02:41:12;98250.09;;;2.67;92.83
75008;BME280;63554;48.940;12.050;2023-02-03T02:45:23;98239.25;;;2.68;93.00
75008;BME280;63554;48.940;12.050;2023-02-03T02:49:32;98232.38;;;2.66;92.98
75008;BME280;63554;48.940;12.050;2023-02-03T02:53:39;98232.22;;;2.67;92.93
75008;BME280;63554;48.940;12.050;2023-02-03T02:57:45;98223.63;;;2.73;92.99
75008;BME280;63554;48.940;12.050;2023-02-03T03:01:49;98222.34;;;2.77;92.72
75008;BME280;63554;48.940;12.050;2023-02-03T03:05:55;98234.81;;;2.87;92.80
75008;BME280;63554;48.940;12.050;2023-02-03T03:10:02;98245.03;;;2.91;92.57
75008;BME280;63554;48.940;12.050;2023-02-03T03:14:07;98235.44;;;2.99;92.70
75008;BME280;63554;48.940;12.050;2023-02-03T03:18:15;98230.31;;;3.05;92.26
75008;BME280;63554;48.940;12.050;2023-02-03T03:22:25;98254.41;;;3.05;92.17
75008;BME280;63554;48.940;12.050;2023-02-03T03:26:34;98239.94;;;3.26;91.20
75008;BME280;63554;48.940;12.050;2023-02-03T03:30:40;98226.16;;;3.21;91.61
75008;BME280;63554;48.940;12.050;2023-02-03T03:34:42;98221.19;;;3.26;91.44
75008;BME280;63554;48.940;12.050;2023-02-03T03:38:52;98232.03;;;3.24;91.36
75008;BME280;63554;48.940;12.050;2023-02-03T03:42:58;98260.72;;;3.32;91.57
75008;BME280;63554;48.940;12.050;2023-02-03T03:47:09;98270.41;;;3.33;91.29
75008;BME280;63554;48.940;12.050;2023-02-03T03:51:17;98269.28;;;3.35;90.84
75008;BME280;63554;48.940;12.050;2023-02-03T03:55:23;98267.28;;;3.38;90.96
75008;BME280;63554;48.940;12.050;2023-02-03T03:59:37;98254.00;;;3.46;90.58
75008;BME280;63554;48.940;12.050;2023-02-03T04:03:43;98246.94;;;3.45;90.47
75008;BME280;63554;48.940;12.050;2023-02-03T04:07:47;98239.09;;;3.43;90.90
75008;BME280;63554;48.940;12.050;2023-02-03T04:11:51;98269.72;;;3.49;90.64
75008;BME280;63554;48.940;12.050;2023-02-03T04:16:02;98304.31;;;3.60;90.29
75008;BME280;63554;48.940;12.050;2023-02-03T04:20:06;98305.47;;;3.58;90.62
75008;BME280;63554;48.940;12.050;2023-02-03T04:24:08;98290.16;;;3.50;90.84
75008;BME280;63554;48.940;12.050;2023-02-03T04:28:13;98296.13;;;3.44;91.11
75008;BME280;63554;48.940;12.050;2023-02-03T04:32:16;98267.91;;;3.49;91.15
75008;BME280;63554;48.940;12.050;2023-02-03T04:36:19;98256.66;;;3.46;91.29
75008;BME280;63554;48.940;12.050;2023-02-03T04:40:21;98253.31;;;3.44;90.81
75008;BME280;63554;48.940;12.050;2023-02-03T04:44:25;98250.31;;;3.47;90.46
75008;BME280;63554;48.940;12.050;2023-02-03T04:48:28;98253.59;;;3.41;91.04
75008;BME280;63554;48.940;12.050;2023-02-03T04:52:31;98256.41;;;3.39;91.19
75008;BME280;63554;48.940;12.050;2023-02-03T04:56:33;98253.91;;;3.38;91.34
75008;BME280;63554;48.940;12.050;2023-02-03T05:00:37;98249.00;;;3.33;91.55
75008;BME280;63554;48.940;12.050;2023-02-03T05:04:40;98231.91;;;3.26;92.03
75008;BME280;63554;48.940;12.050;2023-02-03T05:08:43;98220.34;;;3.25;91.60
75008;BME280;63554;48.940;12.050;2023-02-03T05:12:45;98236.50;;;3.33;91.21
75008;BME280;63554;48.940;12.050;2023-02-03T05:16:49;98238.69;;;3.38;91.02
75008;BME280;63554;48.940;12.050;2023-02-03T05:20:52;98225.03;;;3.41;91.33
75008;BME280;63554;48.940;12.050;2023-02-03T05:24:55;98229.44;;;3.32;91.38
75008;BME280;63554;48.940;12.050;2023-02-03T05:28:57;98236.25;;;3.27;91.34
75008;BME280;63554;48.940;12.050;2023-02-03T05:33:01;98249.75;;;3.25;92.02
75008;BME280;63554;48.940;12.050;2023-02-03T05:37:04;98252.16;;;3.28;91.65
75008;BME280;63554;48.940;12.050;2023-02-03T05:41:08;98236.38;;;3.25;91.46
75008;BME280;63554;48.940;12.050;2023-02-03T05:45:28;98251.25;;;3.38;91.29
75008;BME280;63554;48.940;12.050;2023-02-03T05:49:32;98239.38;;;3.40;91.09
75008;BME280;63554;48.940;12.050;2023-02-03T05:53:35;98253.44;;;3.42;90.53
75008;BME280;63554;48.940;12.050;2023-02-03T05:57:37;98234.03;;;3.40;90.15
75008;BME280;63554;48.940;12.050;2023-02-03T06:01:40;98254.91;;;3.36;90.33
75008;BME280;63554;48.940;12.050;2023-02-03T06:05:44;98255.22;;;3.33;90.59
75008;BME280;63554;48.940;12.050;2023-02-03T06:09:47;98236.78;;;3.30;90.72
75008;BME280;63554;48.940;12.050;2023-02-03T06:13:50;98273.25;;;3.31;90.55
75008;BME280;63554;48.940;12.050;2023-02-03T06:17:53;98276.91;;;3.30;90.01
75008;BME280;63554;48.940;12.050;2023-02-03T06:21:57;98262.00;;;3.28;90.62
75008;BME280;63554;48.940;12.050;2023-02-03T06:25:59;98260.47;;;3.25;90.84
75008;BME280;63554;48.940;12.050;2023-02-03T06:30:02;98253.03;;;3.19;91.31
75008;BME280;63554;48.940;12.050;2023-02-03T06:34:05;98236.75;;;3.12;91.47
75008;BME280;63554;48.940;12.050;2023-02-03T06:38:09;98221.00;;;3.09;91.83
75008;BME280;63554;48.940;12.050;2023-02-03T06:42:12;98185.34;;;3.01;92.14
75008;BME280;63554;48.940;12.050;2023-02-03T06:46:15;98191.66;;;3.00;92.38
75008;BME280;63554;48.940;12.050;2023-02-03T06:50:18;98189.69;;;3.02;92.36
75008;BME280;63554;48.940;12.050;2023-02-03T06:54:22;98187.19;;;3.00;92.68
75008;BME280;63554;48.940;12.050;2023-02-03T06:58:25;98181.28;;;2.96;93.14
75008;BME280;63554;48.940;12.050;2023-02-03T07:02:27;98186.63;;;2.96;92.70
75008;BME280;63554;48.940;12.050;2023-02-03T07:06:30;98177.59;;;2.97;92.46
75008;BME280;63554;48.940;12.050;2023-02-03T07:10:35;98189.69;;;3.02;92.37
75008;BME280;63554;48.940;12.050;2023-02-03T07:14:38;98178.16;;;3.01;92.02
75008;BME280;63554;48.940;12.050;2023-02-03T07:18:42;98149.41;;;3.03;91.64
75008;BME280;63554;48.940;12.050;2023-02-03T07:22:52;98173.63;;;3.02;91.87
75008;BME280;63554;48.940;12.050;2023-02-03T07:26:56;98195.28;;;3.08;91.67
75008;BME280;63554;48.940;12.050;2023-02-03T07:30:59;98191.78;;;3.08;91.84
75008;BME280;63554;48.940;12.050;2023-02-03T07:35:02;98201.16;;;3.12;91.43
75008;BME280;63554;48.940;12.050;2023-02-03T07:39:04;98196.19;;;3.17;90.89
75008;BME280;63554;48.940;12.050;2023-02-03T07:43:08;98190.34;;;3.31;89.83
75008;BME280;63554;48.940;12.050;2023-02-03T07:47:11;98207.34;;;3.30;90.10
75008;BME280;63554;48.940;12.050;2023-02-03T07:51:14;98191.59;;;3.27;90.01
75008;BME280;63554;48.940;12.050;2023-02-03T07:55:16;98205.06;;;3.35;89.75
75008;BME280;63554;48.940;12.050;2023-02-03T07:59:20;98192.38;;;3.38;89.38
75008;BME280;63554;48.940;12.050;2023-02-03T08:03:23;98206.13;;;3.43;88.84
75008;BME280;63554;48.940;12.050;2023-02-03T08:07:27;98205.50;;;3.49;88.57
75008;BME280;63554;48.940;12.050;2023-02-03T08:11:29;98192.47;;;3.46;89.00
75008;BME280;63554;48.940;12.050;2023-02-03T08:15:34;98190.25;;;3.41;88.85
75008;BME280;63554;48.940;12.050;2023-02-03T08:19:36;98228.22;;;3.45;88.05
75008;BME280;63554;48.940;12.050;2023-02-03T08:23:39;98196.78;;;3.47;88.02
75008;BME280;63554;48.940;12.050;2023-02-03T08:27:42;98203.22;;;3.54;87.77
75008;BME280;63554;48.940;12.050;2023-02-03T08:31:46;98200.69;;;3.52;86.66
75008;BME280;63554;48.940;12.050;2023-02-03T08:35:49;98201.38;;;3.54;86.99
75008;BME280;63554;48.940;12.050;2023-02-03T08:39:52;98178.31;;;3.53;87.67
75008;BME280;63554;48.940;12.050;2023-02-03T08:43:55;98165.06;;;3.52;87.54
75008;BME280;63554;48.940;12.050;2023-02-03T08:47:59;98183.34;;;3.56;87.58
75008;BME280;63554;48.940;12.050;2023-02-03T08:52:02;98172.13;;;3.53;87.34
75008;BME280;63554;48.940;12.050;2023-02-03T08:56:05;98172.63;;;3.56;87.58
75008;BME280;63554;48.940;12.050;2023-02-03T09:00:09;98182.34;;;3.58;86.59
75008;BME280;63554;48.940;12.050;2023-02-03T09:04:15;98190.22;;;3.59;86.86
75008;BME280;63554;48.940;12.050;2023-02-03T09:08:19;98184.19;;;3.57;87.02
75008;BME280;63554;48.940;12.050;2023-02-03T09:12:22;98185.56;;;3.61;86.40
75008;BME280;63554;48.940;12.050;2023-02-03T09:16:26;98194.56;;;3.60;86.59
75008;BME280;63554;48.940;12.050;2023-02-03T09:20:30;98216.66;;;3.62;86.98
75008;BME280;63554;48.940;12.050;2023-02-03T09:24:33;98183.34;;;3.56;87.38
75008;BME280;63554;48.940;12.050;2023-02-03T09:28:36;98180.84;;;3.55;87.89
75008;BME280;63554;48.940;12.050;2023-02-03T09:32:39;98216.94;;;3.51;87.62
75008;BME280;63554;48.940;12.050;2023-02-03T09:36:43;98180.84;;;3.55;87.69
75008;BME280;63554;48.940;12.050;2023-02-03T09:40:49;98169.34;;;3.45;88.35
75008;BME280;63554;48.940;12.050;2023-02-03T09:45:15;98197.28;;;3.42;88.84
75008;BME280;63554;48.940;12.050;2023-02-03T09:49:23;98233.91;;;3.42;89.03
75008;BME280;63554;48.940;12.050;2023-02-03T09:53:35;98215.47;;;3.39;89.35
75008;BME280;63554;48.940;12.050;2023-02-03T09:57:44;98198.03;;;3.34;89.54
75008;BME280;63554;48.940;12.050;2023-02-03T10:01:55;98204.22;;;3.35;89.40
75008;BME280;63554;48.940;12.050;2023-02-03T10:06:07;98208.03;;;3.32;90.13
75008;BME280;63554;48.940;12.050;2023-02-03T10:10:16;98191.69;;;3.35;89.38
75008;BME280;63554;48.940;12.050;2023-02-03T10:14:34;98189.53;;;3.39;89.88
75008;BME280;63554;48.940;12.050;2023-02-03T10:18:44;98191.78;;;3.44;89.16
75008;BME280;63554;48.940;12.050;2023-02-03T10:22:50;98188.75;;;3.47;89.02
75008;BME280;63554;48.940;12.050;2023-02-03T10:26:56;98188.63;;;3.48;88.71
75008;BME280;63554;48.940;12.050;2023-02-03T10:31:00;98180.91;;;3.45;88.72
75008;BME280;63554;48.940;12.050;2023-02-03T10:35:10;98193.13;;;3.48;88.40
75008;BME280;63554;48.940;12.050;2023-02-03T10:39:19;98213.94;;;3.54;88.12
75008;BME280;63554;48.940;12.050;2023-02-03T10:43:28;98201.91;;;3.58;88.14
75008;BME280;63554;48.940;12.050;2023-02-03T10:47:54;98203.28;;;3.62;88.28
75008;BME280;63554;48.940;12.050;2023-02-03T10:51:59;98190.59;;;3.64;88.29
75008;BME280;63554;48.940;12.050;2023-02-03T10:56:08;98169.34;;;3.63;88.43
75008;BME280;63554;48.940;12.050;2023-02-03T11:00:22;98160.03;;;3.67;88.53
75008;BME280;63554;48.940;12.050;2023-02-03T11:04:28;98134.56;;;3.63;88.53
75008;BME280;63554;48.940;12.050;2023-02-03T11:08:33;98155.78;;;3.64;88.54
75008;BME280;63554;48.940;12.050;2023-02-03T11:12:36;98144.09;;;3.65;88.96
75008;BME280;63554;48.940;12.050;2023-02-03T11:16:40;98124.53;;;3.65;89.07
75008;BME280;63554;48.940;12.050;2023-02-03T11:20:45;98109.16;;;3.67;88.09
75008;BME280;63554;48.940;12.050;2023-02-03T11:24:47;98089.63;;;3.74;88.29
75008;BME280;63554;48.940;12.050;2023-02-03T11:28:52;98085.94;;;3.75;88.79
75008;BME280;63554;48.940;12.050;2023-02-03T11:32:59;98060.00;;;3.76;88.71
75008;BME280;63554;48.940;12.050;2023-02-03T11:41:23;98043.31;;;3.82;88.67
75008;BME280;63554;48.940;12.050;2023-02-03T11:45:28;98040.47;;;3.84;88.61
75008;BME280;63554;48.940;12.050;2023-02-03T11:54:24;98017.97;;;4.03;88.22
75008;BME280;63554;48.940;12.050;2023-02-03T11:58:49;98001.38;;;3.99;87.00
75008;BME280;63554;48.940;12.050;2023-02-03T12:03:08;97995.53;;;4.04;86.65
75008;BME280;63554;48.940;12.050;2023-02-03T12:07:27;97991.88;;;4.13;86.32
75008;BME280;63554;48.940;12.050;2023-02-03T12:11:47;97998.94;;;4.14;86.68
75008;BME280;63554;48.940;12.050;2023-02-03T12:16:12;98023.38;;;4.19;87.59
75008;BME280;63554;48.940;12.050;2023-02-03T12:20:27;97994.72;;;4.11;87.30
75008;BME280;63554;48.940;12.050;2023-02-03T12:24:40;97982.88;;;4.14;87.48
75008;BME280;63554;48.940;12.050;2023-02-03T12:28:54;97977.50;;;4.14;87.19
75008;BME280;63554;48.940;12.050;2023-02-03T12:33:00;97981.34;;;4.11;87.44
75008;BME280;63554;48.940;12.050;2023-02-03T12:37:07;97968.13;;;4.10;88.17
75008;BME280;63554;48.940;12.050;2023-02-03T12:41:15;97978.66;;;4.11;87.55
75008;BME280;63554;48.940;12.050;2023-02-03T12:45:24;97988.22;;;4.14;87.82
75008;BME280;63554;48.940;12.050;2023-02-03T12:49:34;97997.44;;;4.20;87.34
75008;BME280;63554;48.940;12.050;2023-02-03T12:53:45;97978.03;;;4.18;87.95
75008;BME280;63554;48.940;12.050;2023-02-03T12:57:54;97973.66;;;4.25;86.93
75008;BME280;63554;48.940;12.050;2023-02-03T13:02:08;97964.97;;;4.31;86.84
75008;BME280;63554;48.940;12.050;2023-02-03T13:06:18;97922.47;;;4.36;86.16
75008;BME280;63554;48.940;12.050;2023-02-03T13:10:27;97894.47;;;4.39;85.99
75008;BME280;63554;48.940;12.050;2023-02-03T13:14:35;97907.41;;;4.43;85.94
75008;BME280;63554;48.940;12.050;2023-02-03T13:18:45;97889.63;;;4.50;85.35
75008;BME280;63554;48.940;12.050;2023-02-03T13:22:49;97857.66;;;4.49;86.31
75008;BME280;63554;48.940;12.050;2023-02-03T13:27:08;97867.38;;;4.42;86.48
75008;BME280;63554;48.940;12.050;2023-02-03T13:31:28;97853.59;;;4.45;86.21
75008;BME280;63554;48.940;12.050;2023-02-03T13:35:47;97838.03;;;4.56;85.05
75008;BME280;63554;48.940;12.050;2023-02-03T13:40:02;97846.91;;;4.57;85.48
75008;BME280;63554;48.940;12.050;2023-02-03T13:44:11;97866.84;;;4.54;85.26
75008;BME280;63554;48.940;12.050;2023-02-03T13:48:17;97831.66;;;4.58;85.08
75008;BME280;63554;48.940;12.050;2023-02-03T13:52:29;97834.84;;;4.61;85.28
75008;BME280;63554;48.940;12.050;2023-02-03T13:56:33;97834.31;;;4.74;84.78
75008;BME280;63554;48.940;12.050;2023-02-03T14:00:58;97855.75;;;4.74;84.67
75008;BME280;63554;48.940;12.050;2023-02-03T14:05:01;97836.13;;;4.82;84.14
75008;BME280;63554;48.940;12.050;2023-02-03T14:09:19;97789.56;;;4.83;84.61
75008;BME280;63554;48.940;12.050;2023-02-03T14:13:22;97750.69;;;4.79;84.56
75008;BME280;63554;48.940;12.050;2023-02-03T14:22:26;97759.06;;;4.75;85.95
75008;BME280;63554;48.940;12.050;2023-02-03T14:26:34;97779.22;;;4.63;86.70
75008;BME280;63554;48.940;12.050;2023-02-03T14:31:05;97771.19;;;4.63;86.51
75008;BME280;63554;48.940;12.050;2023-02-03T14:35:14;97797.31;;;4.61;86.94
75008;BME280;63554;48.940;12.050;2023-02-03T14:44:04;97800.50;;;4.65;87.34
75008;BME280;63554;48.940;12.050;2023-02-03T14:48:27;97816.41;;;4.66;86.55
75008;BME280;63554;48.940;12.050;2023-02-03T14:52:44;97820.09;;;4.65;87.18
75008;BME280;63554;48.940;12.050;2023-02-03T14:56:59;97830.00;;;4.65;87.16
75008;BME280;63554;48.940;12.050;2023-02-03T15:01:25;97838.84;;;4.73;86.78
75008;BME280;63554;48.940;12.050;2023-02-03T15:05:35;97875.88;;;4.62;87.51
75008;BME280;63554;48.940;12.050;2023-02-03T15:09:40;97842.38;;;4.58;88.59
75008;BME280;63554;48.940;12.050;2023-02-03T15:13:44;97850.59;;;4.48;89.32
75008;BME280;63554;48.940;12.050;2023-02-03T15:17:49;97860.66;;;4.46;89.42
75008;BME280;63554;48.940;12.050;2023-02-03T15:21:52;97876.56;;;4.47;89.89
75008;BME280;63554;48.940;12.050;2023-02-03T15:25:56;97875.56;;;4.48;89.95
75008;BME280;63554;48.940;12.050;2023-02-03T15:30:13;97878.41;;;4.47;89.78
75008;BME280;63554;48.940;12.050;2023-02-03T15:34:28;97866.19;;;4.44;89.83
75008;BME280;63554;48.940;12.050;2023-02-03T15:38:37;97871.06;;;4.49;89.17
75008;BME280;63554;48.940;12.050;2023-02-03T15:42:47;97871.53;;;4.52;88.96
75008;BME280;63554;48.940;12.050;2023-02-03T15:46:55;97861.97;;;4.58;88.42
75008;BME280;63554;48.940;12.050;2023-02-03T15:51:05;97853.63;;;4.53;89.13
75008;BME280;63554;48.940;12.050;2023-02-03T15:55:17;97845.22;;;4.56;88.60
75008;BME280;63554;48.940;12.050;2023-02-03T15:59:23;97840.53;;;4.58;88.93
75008;BME280;63554;48.940;12.050;2023-02-03T16:03:33;97843.56;;;4.63;88.62
75008;BME280;63554;48.940;12.050;2023-02-03T16:07:38;97832.16;;;4.69;88.22
75008;BME280;63554;48.940;12.050;2023-02-03T16:11:41;97820.09;;;4.65;88.55
75008;BME280;63554;48.940;12.050;2023-02-03T16:15:43;97823.59;;;4.74;87.78
75008;BME280;63554;48.940;12.050;2023-02-03T16:19:46;97870.03;;;4.74;87.48
75008;BME280;63554;48.940;12.050;2023-02-03T16:23:53;97820.38;;;4.87;86.43
75008;BME280;63554;48.940;12.050;2023-02-03T16:27:57;97824.06;;;4.86;86.58
75008;BME280;63554;48.940;12.050;2023-02-03T16:32:18;97832.28;;;4.76;87.43
75008;BME280;63554;48.940;12.050;2023-02-03T16:36:41;97843.03;;;4.84;86.95
75008;BME280;63554;48.940;12.050;2023-02-03T16:41:12;97801.66;;;4.79;87.19
75008;BME280;63554;48.940;12.050;2023-02-03T16:45:35;97781.34;;;4.84;87.32
75008;BME280;63554;48.940;12.050;2023-02-03T16:49:55;97743.44;;;4.87;86.87
75008;BME280;63554;48.940;12.050;2023-02-03T16:54:15;97749.84;;;4.86;87.63
75008;BME280;63554;48.940;12.050;2023-02-03T16:58:20;97802.78;;;4.92;87.29
75008;BME280;63554;48.940;12.050;2023-02-03T17:02:23;97768.88;;;5.00;86.87
75008;BME280;63554;48.940;12.050;2023-02-03T17:06:26;97789.50;;;4.99;85.88
75008;BME280;63554;48.940;12.050;2023-02-03T17:10:29;97781.28;;;5.01;86.95
75008;BME280;63554;48.940;12.050;2023-02-03T17:14:33;97800.09;;;4.92;87.23
75008;BME280;63554;48.940;12.050;2023-02-03T17:18:37;97834.78;;;4.94;87.33
75008;BME280;63554;48.940;12.050;2023-02-03T17:22:40;97846.66;;;5.00;86.70
75008;BME280;63554;48.940;12.050;2023-02-03T17:26:42;97858.41;;;4.99;86.52
75008;BME280;63554;48.940;12.050;2023-02-03T17:30:54;97861.22;;;5.05;87.20
75008;BME280;63554;48.940;12.050;2023-02-03T17:34:57;97891.75;;;5.04;86.67
75008;BME280;63554;48.940;12.050;2023-02-03T17:39:00;97852.84;;;5.08;86.51
75008;BME280;63554;48.940;12.050;2023-02-03T17:43:20;97876.47;;;5.13;86.78
75008;BME280;63554;48.940;12.050;2023-02-03T17:47:41;97874.13;;;5.10;86.85
75008;BME280;63554;48.940;12.050;2023-02-03T17:52:01;97861.03;;;5.15;86.21
75008;BME280;63554;48.940;12.050;2023-02-03T17:56:23;97876.44;;;5.21;85.67
75008;BME280;63554;48.940;12.050;2023-02-03T18:00:27;97880.47;;;5.25;85.55
75008;BME280;63554;48.940;12.050;2023-02-03T18:04:31;97886.66;;;5.26;85.89
75008;BME280;63554;48.940;12.050;2023-02-03T18:08:35;97877.09;;;5.31;85.71
75008;BME280;63554;48.940;12.050;2023-02-03T18:12:37;97854.63;;;5.24;86.55
75008;BME280;63554;48.940;12.050;2023-02-03T18:16:41;97851.31;;;5.14;87.98
75008;BME280;63554;48.940;12.050;2023-02-03T18:20:45;97833.22;;;5.08;88.15
75008;BME280;63554;48.940;12.050;2023-02-03T18:24:47;97852.78;;;5.25;87.50
75008;BME280;63554;48.940;12.050;2023-02-03T18:28:52;97867.22;;;5.24;87.33
75008;BME280;63554;48.940;12.050;2023-02-03T18:32:55;97855.78;;;5.30;86.77
75008;BME280;63554;48.940;12.050;2023-02-03T18:37:01;97853.56;;;5.42;86.41
75008;BME280;63554;48.940;12.050;2023-02-03T18:41:04;97877.84;;;5.48;86.10
75008;BME280;63554;48.940;12.050;2023-02-03T18:45:08;97875.00;;;5.50;85.37
75008;BME280;63554;48.940;12.050;2023-02-03T18:49:11;97876.47;;;5.52;86.35
75008;BME280;63554;48.940;12.050;2023-02-03T18:53:15;97883.03;;;5.50;86.57
75008;BME280;63554;48.940;12.050;2023-02-03T18:57:18;97886.72;;;5.57;86.49
75008;BME280;63554;48.940;12.050;2023-02-03T19:01:24;97903.13;;;5.62;85.99
75008;BME280;63554;48.940;12.050;2023-02-03T19:05:27;97897.28;;;5.59;85.94
75008;BME280;63554;48.940;12.050;2023-02-03T19:09:31;97916.25;;;5.57;85.77
75008;BME280;63554;48.940;12.050;2023-02-03T19:13:35;97912.91;;;5.55;85.61
75008;BME280;63554;48.940;12.050;2023-02-03T19:17:37;97928.16;;;5.54;86.70
75008;BME280;63554;48.940;12.050;2023-02-03T19:21:40;97924.00;;;5.44;87.14
75008;BME280;63554;48.940;12.050;2023-02-03T19:25:49;97938.13;;;5.38;87.45
75008;BME280;63554;48.940;12.050;2023-02-03T19:29:51;97906.78;;;5.30;88.61
75008;BME280;63554;48.940;12.050;2023-02-03T19:33:55;97909.66;;;5.20;89.38
75008;BME280;63554;48.940;12.050;2023-02-03T19:37:59;97901.94;;;5.25;88.95
75008;BME280;63554;48.940;12.050;2023-02-03T19:42:03;97888.16;;;5.28;88.09
75008;BME280;63554;48.940;12.050;2023-02-03T19:46:06;97903.91;;;5.31;88.55
75008;BME280;63554;48.940;12.050;2023-02-03T19:50:09;97910.94;;;5.32;87.31
75008;BME280;63554;48.940;12.050;2023-02-03T19:54:13;97907.63;;;5.22;88.78
75008;BME280;63554;48.940;12.050;2023-02-03T19:58:18;97911.66;;;5.18;88.96
75008;BME280;63554;48.940;12.050;2023-02-03T20:02:20;97910.47;;;5.21;89.56
75008;BME280;63554;48.940;12.050;2023-02-03T20:06:23;97915.19;;;5.19;89.48
75008;BME280;63554;48.940;12.050;2023-02-03T20:10:26;97911.97;;;5.31;88.35
75008;BME280;63554;48.940;12.050;2023-02-03T20:14:31;97930.22;;;5.36;88.46
75008;BME280;63554;48.940;12.050;2023-02-03T20:18:34;97913.97;;;5.38;88.63
75008;BME280;63554;48.940;12.050;2023-02-03T20:22:36;97925.19;;;5.41;88.37
75008;BME280;63554;48.940;12.050;2023-02-03T20:26:39;97934.56;;;5.45;88.51
75008;BME280;63554;48.940;12.050;2023-02-03T20:30:44;97948.00;;;5.45;88.48
75008;BME280;63554;48.940;12.050;2023-02-03T20:34:47;97938.09;;;5.46;88.39
75008;BME280;63554;48.940;12.050;2023-02-03T20:38:49;97949.66;;;5.46;88.57
75008;BME280;63554;48.940;12.050;2023-02-03T20:42:52;97970.28;;;5.54;87.61
75008;BME280;63554;48.940;12.050;2023-02-03T20:46:56;97963.56;;;5.50;88.62
75008;BME280;63554;48.940;12.050;2023-02-03T20:50:59;97986.25;;;5.47;87.75
75008;BME280;63554;48.940;12.050;2023-02-03T20:55:08;97977.84;;;5.42;87.41
75008;BME280;63554;48.940;12.050;2023-02-03T20:59:15;97983.22;;;5.42;87.14
75008;BME280;63554;48.940;12.050;2023-02-03T21:03:19;97962.41;;;5.44;86.20
75008;BME280;63554;48.940;12.050;2023-02-03T21:07:39;97980.00;;;5.47;85.34
75008;BME280;63554;48.940;12.050;2023-02-03T21:11:42;97982.97;;;5.68;81.95
75008;BME280;63554;48.940;12.050;2023-02-03T21:15:45;97974.78;;;5.62;82.58
75008;BME280;63554;48.940;12.050;2023-02-03T21:19:51;97972.81;;;5.47;84.26
75008;BME280;63554;48.940;12.050;2023-02-03T21:23:54;97987.69;;;5.58;84.22
75008;BME280;63554;48.940;12.050;2023-02-03T21:27:58;97962.06;;;5.55;84.32
75008;BME280;63554;48.940;12.050;2023-02-03T21:32:02;97973.31;;;5.51;84.52
75008;BME280;63554;48.940;12.050;2023-02-03T21:36:13;97972.13;;;5.53;83.89
75008;BME280;63554;48.940;12.050;2023-02-03T21:40:20;97961.53;;;5.60;82.30
75008;BME280;63554;48.940;12.050;2023-02-03T21:44:26;97964.06;;;5.53;83.33
75008;BME280;63554;48.940;12.050;2023-02-03T21:48:30;97970.28;;;5.54;82.61
75008;BME280;63554;48.940;12.050;2023-02-03T21:52:35;97986.75;;;5.51;82.57
75008;BME280;63554;48.940;12.050;2023-02-03T21:56:39;97986.38;;;5.54;82.93
75008;BME280;63554;48.940;12.050;2023-02-03T22:00:43;98000.81;;;5.45;82.69
75008;BME280;63554;48.940;12.050;2023-02-03T22:04:48;98022.97;;;5.47;82.37